createdAt,value
2019-02-11T00:00:29.989Z,98548.23
2019-02-11T00:02:58.571Z,98536.05
2019-02-11T00:05:27.110Z,98532.70
2019-02-11T00:07:55.662Z,98542.77
2019-02-11T00:10:24.271Z,98540.86
2019-02-11T00:12:52.934Z,98544.19
2019-02-11T00:15:21.584Z,98551.45
2019-02-11T00:17:50.203Z,98553.70
2019-02-11T00:20:18.785Z,98555.89
2019-02-11T00:22:47.409Z,98547.28
2019-02-11T00:25:15.949Z,98558.23
2019-02-11T00:27:44.558Z,98567.11
2019-02-11T00:30:13.394Z,98574.42
2019-02-11T00:32:42.041Z,98572.38
2019-02-11T00:35:10.593Z,98585.92
2019-02-11T00:37:39.192Z,98583.68
2019-02-11T00:40:08.527Z,98596.23
2019-02-11T00:42:37.182Z,98591.02
2019-02-11T00:45:07.910Z,98591.66
2019-02-11T00:47:36.601Z,98604.44
2019-02-11T00:50:08.636Z,98614.11
2019-02-11T00:52:37.458Z,98623.07
2019-02-11T00:55:06.659Z,98630.61
2019-02-11T00:57:35.645Z,98639.55
2019-02-11T01:00:06.015Z,98646.58
2019-02-11T01:02:34.652Z,98648.20
2019-02-11T01:05:03.468Z,98650.00
2019-02-11T01:07:32.130Z,98650.33
2019-02-11T01:10:01.016Z,98651.20
2019-02-11T01:12:29.700Z,98672.41
2019-02-11T01:14:58.272Z,98672.73
2019-02-11T01:17:26.872Z,98678.66
2019-02-11T01:19:55.437Z,98699.98
2019-02-11T01:22:24.043Z,98698.46
2019-02-11T01:24:52.603Z,98706.34
2019-02-11T01:27:21.222Z,98708.41
2019-02-11T01:29:50.194Z,98703.23
2019-02-11T01:32:18.782Z,98719.73
2019-02-11T01:34:47.346Z,98719.83
2019-02-11T01:37:15.950Z,98721.98
2019-02-11T01:39:44.442Z,98728.32
2019-02-11T01:42:13.045Z,98739.47
2019-02-11T01:44:41.573Z,98741.27
2019-02-11T01:47:10.232Z,98740.30
2019-02-11T01:49:38.946Z,98757.39
2019-02-11T01:52:07.512Z,98751.09
2019-02-11T01:54:38.720Z,98762.69
2019-02-11T01:57:07.390Z,98765.23
2019-02-11T01:59:36.267Z,98767.33
2019-02-11T02:02:04.867Z,98779.61
2019-02-11T02:04:33.452Z,98786.91
2019-02-11T02:07:02.110Z,98780.48
2019-02-11T02:09:30.709Z,98793.34
2019-02-11T02:11:59.294Z,98800.55
2019-02-11T02:14:27.873Z,98800.03
2019-02-11T02:16:56.461Z,98809.43
2019-02-11T02:19:25.414Z,98820.76
2019-02-11T02:21:54.024Z,98831.28
2019-02-11T02:24:22.644Z,98823.75
2019-02-11T02:26:51.297Z,98835.33
2019-02-11T02:29:20.288Z,98838.25
2019-02-11T02:31:48.990Z,98845.28
2019-02-11T02:34:17.972Z,98843.44
2019-02-11T02:36:46.748Z,98854.31
2019-02-11T02:39:15.360Z,98858.92
2019-02-11T02:41:43.905Z,98864.05
2019-02-11T02:44:12.509Z,98873.48
2019-02-11T02:46:41.060Z,98874.36
2019-02-11T02:49:09.676Z,98889.23
2019-02-11T02:51:38.243Z,98897.89
2019-02-11T02:54:06.764Z,98901.97
2019-02-11T02:56:35.424Z,98911.50
2019-02-11T02:59:03.983Z,98922.52
2019-02-11T03:01:32.700Z,98924.92
2019-02-11T03:04:01.265Z,98929.00
2019-02-11T03:06:29.869Z,98943.91
2019-02-11T03:08:58.434Z,98942.72
2019-02-11T03:11:27.029Z,98950.30
2019-02-11T03:14:03.815Z,98962.16
2019-02-11T03:16:25.941Z,98977.91
2019-02-11T03:18:54.825Z,98972.77
2019-02-11T03:21:23.413Z,98987.94
2019-02-11T03:23:52.078Z,99001.45
2019-02-11T03:26:20.684Z,98994.99
2019-02-11T03:28:49.310Z,99011.39
2019-02-11T03:31:17.857Z,99016.27
2019-02-11T03:33:46.717Z,99017.59
2019-02-11T03:36:15.327Z,99029.12
2019-02-11T03:38:44.013Z,99031.86
2019-02-11T03:41:12.570Z,99038.28
2019-02-11T03:43:41.177Z,99053.56
2019-02-11T03:46:09.742Z,99057.83
2019-02-11T03:48:38.365Z,99060.41
2019-02-11T03:51:06.927Z,99068.77
2019-02-11T03:53:35.971Z,99072.52
2019-02-11T03:56:04.743Z,99093.55
2019-02-11T03:58:33.376Z,99093.70
2019-02-11T04:01:01.984Z,99106.59
2019-02-11T04:03:30.648Z,99108.68
2019-02-11T04:05:59.225Z,99113.81
2019-02-11T04:08:27.830Z,99123.70
2019-02-11T04:10:56.393Z,99135.85
2019-02-11T04:13:25.300Z,99145.84
2019-02-11T04:15:53.872Z,99137.58
2019-02-11T04:18:22.473Z,99147.06
2019-02-11T04:20:50.970Z,99164.28
2019-02-11T04:23:20.248Z,99152.34
2019-02-11T04:25:48.839Z,99176.95
2019-02-11T04:28:17.358Z,99183.95
2019-02-11T04:30:45.902Z,99186.02
2019-02-11T04:33:14.691Z,99199.31
2019-02-11T04:35:43.250Z,99202.03
2019-02-11T04:38:11.876Z,99207.28
2019-02-11T04:40:40.427Z,99222.42
2019-02-11T04:43:09.291Z,99227.56
2019-02-11T04:45:38.226Z,99236.27
2019-02-11T04:48:06.914Z,99241.69
2019-02-11T04:50:35.538Z,99255.83
2019-02-11T04:53:04.216Z,99264.20
2019-02-11T04:55:33.060Z,99269.89
2019-02-11T04:58:01.645Z,99280.70
2019-02-11T05:00:35.829Z,99282.63
2019-02-11T05:03:04.448Z,99289.11
2019-02-11T05:05:33.014Z,99298.59
2019-02-11T05:08:01.614Z,99299.63
2019-02-11T05:10:30.173Z,99303.66
2019-02-11T05:12:58.882Z,99307.91
2019-02-11T05:15:27.872Z,99318.57
2019-02-11T05:17:56.471Z,99317.17
2019-02-11T05:20:25.032Z,99324.49
2019-02-11T05:22:54.029Z,99330.20
2019-02-11T05:25:22.598Z,99338.61
2019-02-11T05:27:51.198Z,99336.13
2019-02-11T05:30:19.763Z,99339.38
2019-02-11T05:32:48.369Z,99351.59
2019-02-11T05:35:16.950Z,99348.33
2019-02-11T05:37:45.577Z,99368.36
2019-02-11T05:40:14.422Z,99361.59
2019-02-11T05:42:43.023Z,99374.88
2019-02-11T05:45:11.516Z,99387.59
2019-02-11T05:47:40.080Z,99383.30
2019-02-11T05:50:11.086Z,99391.11
2019-02-11T05:52:39.903Z,99401.53
2019-02-11T05:55:08.783Z,99398.48
2019-02-11T05:57:37.843Z,99405.55
2019-02-11T06:00:12.064Z,99411.30
2019-02-11T06:02:40.607Z,99425.67
2019-02-11T06:05:09.145Z,99433.42
2019-02-11T06:07:37.764Z,99440.20
2019-02-11T06:10:09.221Z,99441.56
2019-02-11T06:12:38.193Z,99441.33
2019-02-11T06:15:07.860Z,99465.18
2019-02-11T06:17:36.846Z,99394.87
2019-02-11T06:20:08.461Z,99461.96
2019-02-11T06:22:37.025Z,99475.46
2019-02-11T06:25:07.475Z,99480.57
2019-02-11T06:27:36.137Z,99484.33
2019-02-11T06:30:08.014Z,99493.06
2019-02-11T06:32:36.597Z,99498.73
2019-02-11T06:35:07.703Z,99494.10
2019-02-11T06:37:36.254Z,99503.06
2019-02-11T06:40:07.733Z,99510.89
2019-02-11T06:42:36.499Z,99510.12
2019-02-11T06:45:13.168Z,99513.97
2019-02-11T06:47:38.585Z,99514.20
2019-02-11T06:50:10.116Z,99525.60
2019-02-11T06:52:38.686Z,99532.97
2019-02-11T06:55:09.962Z,99545.42
2019-02-11T06:57:38.663Z,99545.70
2019-02-11T07:00:13.411Z,99558.45
2019-02-11T07:02:42.037Z,99560.09
2019-02-11T07:05:10.539Z,99562.53
2019-02-11T07:07:39.141Z,99572.58
2019-02-11T07:10:12.245Z,99581.77
2019-02-11T07:12:40.845Z,99589.34
2019-02-11T07:15:21.592Z,99592.64
2019-02-11T07:17:44.860Z,99608.12
2019-02-11T07:20:13.446Z,99608.12
2019-02-11T07:22:42.356Z,99611.65
2019-02-11T07:25:10.957Z,99621.87
2019-02-11T07:27:39.550Z,99637.59
2019-02-11T07:30:11.019Z,99630.55
2019-02-11T07:32:39.602Z,99636.46
2019-02-11T07:35:08.211Z,99649.57
2019-02-11T07:37:36.804Z,99663.22
2019-02-11T07:40:10.207Z,99664.81
2019-02-11T07:42:40.866Z,99674.77
2019-02-11T07:45:12.531Z,99693.36
2019-02-11T07:47:41.106Z,99693.00
2019-02-11T07:50:09.666Z,99692.12
2019-02-11T07:52:38.610Z,99694.09
2019-02-11T07:55:07.530Z,99698.22
2019-02-11T07:57:36.449Z,99705.77
2019-02-11T08:00:06.911Z,99715.04
2019-02-11T08:02:35.473Z,99718.56
2019-02-11T08:05:04.830Z,99714.48
2019-02-11T08:07:33.403Z,99713.10
2019-02-11T08:10:02.318Z,99725.33
2019-02-11T08:12:31.243Z,99726.39
2019-02-11T08:14:59.761Z,99726.98
2019-02-11T08:17:28.424Z,99729.34
2019-02-11T08:19:56.965Z,99736.89
2019-02-11T08:22:25.543Z,99732.82
2019-02-11T08:24:54.055Z,99736.11
2019-02-11T08:27:22.602Z,99748.88
2019-02-11T08:29:51.136Z,99743.69
2019-02-11T08:32:19.735Z,99746.68
2019-02-11T08:34:48.268Z,99749.91
2019-02-11T08:37:16.875Z,99759.36
2019-02-11T08:39:45.495Z,99758.64
2019-02-11T08:42:14.071Z,99768.69
2019-02-11T08:44:42.616Z,99772.44
2019-02-11T08:47:11.314Z,99779.69
2019-02-11T08:49:39.868Z,99795.72
2019-02-11T08:52:08.396Z,99794.40
2019-02-11T08:54:37.397Z,99801.95
2019-02-11T08:57:05.866Z,99809.77
2019-02-11T08:59:34.431Z,99811.67
2019-02-11T09:02:02.974Z,99824.17
2019-02-11T09:04:31.647Z,99837.81
2019-02-11T09:07:00.585Z,99837.27
2019-02-11T09:09:29.135Z,99848.38
2019-02-11T09:11:57.731Z,99853.73
2019-02-11T09:14:26.280Z,99873.67
2019-02-11T09:16:54.776Z,99870.89
2019-02-11T09:19:23.351Z,99881.74
2019-02-11T09:21:51.852Z,99885.52
2019-02-11T09:24:20.416Z,99892.92
2019-02-11T09:26:48.916Z,99891.89
2019-02-11T09:29:17.470Z,99916.05
2019-02-11T09:31:45.992Z,99909.49
2019-02-11T09:34:14.541Z,99916.23
2019-02-11T09:36:43.469Z,99911.03
2019-02-11T09:39:12.109Z,99923.55
2019-02-11T09:41:40.711Z,99919.44
2019-02-11T09:44:09.286Z,99919.44
2019-02-11T09:46:37.829Z,99931.23
2019-02-11T09:49:06.427Z,99926.00
2019-02-11T09:51:37.843Z,99942.30
2019-02-11T09:54:06.422Z,99934.34
2019-02-11T09:56:35.025Z,99949.13
2019-02-11T09:59:03.604Z,99949.09
2019-02-11T10:01:32.580Z,99958.32
2019-02-11T10:04:01.572Z,99972.23
2019-02-11T10:06:30.098Z,99961.77
2019-02-11T10:08:58.666Z,99968.47
2019-02-11T10:11:27.186Z,99974.45
2019-02-11T10:13:55.762Z,99984.02
2019-02-11T10:16:24.302Z,99984.80
2019-02-11T10:18:52.939Z,99986.33
2019-02-11T10:21:21.512Z,99992.82
2019-02-11T10:23:52.132Z,99996.59
2019-02-11T10:26:22.623Z,100001.27
2019-02-11T10:28:51.204Z,100008.62
2019-02-11T10:31:19.753Z,100015.94
2019-02-11T10:33:48.376Z,100012.34
2019-02-11T10:36:17.863Z,100021.86
2019-02-11T10:38:46.425Z,100016.91
2019-02-11T10:41:14.939Z,100031.03
2019-02-11T10:43:43.544Z,100025.23
2019-02-11T10:46:12.042Z,100021.22
2019-02-11T10:48:40.667Z,100033.72
2019-02-11T10:51:09.184Z,100045.91
2019-02-11T10:53:37.770Z,100048.87
2019-02-11T10:56:06.330Z,100046.80
2019-02-11T10:58:34.882Z,100056.67
2019-02-11T11:01:03.809Z,100061.49
2019-02-11T11:03:32.365Z,100057.48
2019-02-11T11:06:00.896Z,100063.50
2019-02-11T11:08:29.501Z,100063.50
2019-02-11T11:10:58.056Z,100067.08
2019-02-11T11:13:27.075Z,100084.25
2019-02-11T11:15:55.647Z,100097.58
2019-02-11T11:18:24.176Z,100087.66
2019-02-11T11:20:52.698Z,100088.67
2019-02-11T11:23:21.362Z,100094.66
2019-02-11T11:25:49.868Z,100115.65
2019-02-11T11:28:18.536Z,100120.12
2019-02-11T11:30:47.074Z,100132.86
2019-02-11T11:33:16.110Z,100114.83
2019-02-11T11:35:44.622Z,100119.78
2019-02-11T11:38:13.199Z,100125.22
2019-02-11T11:40:41.724Z,100130.64
2019-02-11T11:43:10.371Z,100133.70
2019-02-11T11:45:38.888Z,100137.19
2019-02-11T11:48:07.533Z,100139.44
2019-02-11T11:50:36.167Z,100137.83
2019-02-11T11:53:04.941Z,100135.92
2019-02-11T11:55:33.911Z,100145.98
2019-02-11T11:58:02.548Z,100145.98
2019-02-11T12:00:33.304Z,100149.73
2019-02-11T12:03:04.848Z,100159.30
2019-02-11T12:05:32.264Z,100167.81
2019-02-11T12:08:00.840Z,100165.91
2019-02-11T12:10:29.399Z,100162.60
2019-02-11T12:12:58.004Z,100167.17
2019-02-11T12:15:27.574Z,100178.17
2019-02-11T12:17:56.194Z,100171.36
2019-02-11T12:20:24.756Z,100188.53
2019-02-11T12:22:53.448Z,100178.55
2019-02-11T12:25:22.049Z,100198.31
2019-02-11T12:27:50.599Z,100191.33
2019-02-11T12:30:24.825Z,100226.41
2019-02-11T12:32:55.489Z,100213.58
2019-02-11T12:35:24.280Z,100220.20
2019-02-11T12:37:53.298Z,100221.98
2019-02-11T12:40:21.906Z,100226.08
2019-02-11T12:42:53.116Z,100241.91
2019-02-11T12:45:24.039Z,100250.28
2019-02-11T12:47:55.183Z,100259.04
2019-02-11T12:50:28.222Z,100275.13
2019-02-11T12:52:56.817Z,100256.84
2019-02-11T12:55:25.365Z,100264.83
2019-02-11T12:57:54.047Z,100275.90
2019-02-11T13:00:23.937Z,100278.26
2019-02-11T13:02:52.649Z,100296.57
2019-02-11T13:05:23.511Z,100295.00
2019-02-11T13:07:51.538Z,100291.52
2019-02-11T13:10:20.510Z,100304.47
2019-02-11T13:12:49.435Z,100310.55
2019-02-11T13:15:52.887Z,100322.88
2019-02-11T13:17:50.184Z,100312.89
2019-02-11T13:20:19.424Z,100344.95
2019-02-11T13:22:48.516Z,100336.98
2019-02-11T13:25:17.754Z,100325.98
2019-02-11T13:27:46.394Z,100335.67
2019-02-11T13:30:18.264Z,100345.34
2019-02-11T13:32:46.849Z,100354.09
2019-02-11T13:35:15.815Z,100364.47
2019-02-11T13:37:44.449Z,100370.61
2019-02-11T13:40:13.147Z,100360.66
2019-02-11T13:42:41.879Z,100372.26
2019-02-11T13:45:19.495Z,100373.01
2019-02-11T13:47:55.230Z,100404.83
2019-02-11T13:50:23.797Z,100393.89
2019-02-11T13:52:52.535Z,100408.25
2019-02-11T13:55:21.701Z,100418.43
2019-02-11T13:57:50.348Z,100416.92
2019-02-11T14:00:36.893Z,100411.39
2019-02-11T14:03:07.146Z,100423.02
2019-02-11T14:05:36.164Z,100423.13
2019-02-11T14:08:05.519Z,100430.16
2019-02-11T14:10:34.118Z,100439.20
2019-02-11T14:13:02.867Z,100449.09
2019-02-11T14:15:31.939Z,100447.37
2019-02-11T14:18:12.325Z,100453.17
2019-02-11T14:20:35.959Z,100446.85
2019-02-11T14:23:04.908Z,100453.16
2019-02-11T14:25:43.695Z,100450.16
2019-02-11T14:28:04.237Z,100469.12
2019-02-11T14:30:33.459Z,100470.70
2019-02-11T14:33:02.379Z,100483.27
2019-02-11T14:35:31.496Z,100486.14
2019-02-11T14:38:02.477Z,100484.27
2019-02-11T14:40:30.394Z,100484.34
2019-02-11T14:42:58.992Z,100501.84
2019-02-11T14:45:28.040Z,100507.87
2019-02-11T14:47:56.633Z,100509.34
2019-02-11T14:50:25.570Z,100520.30
2019-02-11T14:52:54.107Z,100529.05
2019-02-11T14:55:22.704Z,100548.70
2019-02-11T14:57:51.266Z,100545.53
2019-02-11T15:00:21.536Z,100539.86
2019-02-11T15:02:50.228Z,100546.14
2019-02-11T15:05:19.259Z,100554.02
2019-02-11T15:07:48.480Z,100554.58
2019-02-11T15:10:17.096Z,100567.66
2019-02-11T15:12:45.605Z,100567.11
2019-02-11T15:15:14.521Z,100583.98
2019-02-11T15:17:44.378Z,100573.33
2019-02-11T15:20:15.254Z,100581.47
2019-02-11T15:22:43.749Z,100594.55
2019-02-11T15:25:15.057Z,100584.73
2019-02-11T15:27:43.557Z,100598.08
2019-02-11T15:30:14.623Z,100615.22
2019-02-11T15:32:43.223Z,100610.31
2019-02-11T15:35:11.962Z,100616.80
2019-02-11T15:37:40.501Z,100629.87
2019-02-11T15:40:17.333Z,100626.89
2019-02-11T15:42:46.056Z,100629.91
2019-02-11T15:45:15.436Z,100634.23
2019-02-11T15:47:44.296Z,100641.07
2019-02-11T15:50:15.493Z,100640.25
2019-02-11T15:52:46.132Z,100645.93
2019-02-11T15:55:17.419Z,100656.30
2019-02-11T15:57:46.178Z,100667.14
2019-02-11T16:00:19.756Z,100676.70
2019-02-11T16:02:48.371Z,100683.28
2019-02-11T16:05:17.044Z,100689.52
2019-02-11T16:07:46.397Z,100701.28
2019-02-11T16:10:26.680Z,100713.74
2019-02-11T16:12:56.214Z,100722.16
2019-02-11T16:15:24.888Z,100728.37
2019-02-11T16:17:54.594Z,100730.39
2019-02-11T16:20:23.178Z,100735.30
2019-02-11T16:22:51.849Z,100746.69
2019-02-11T16:25:21.636Z,100745.82
2019-02-11T16:27:50.229Z,100763.09
2019-02-11T16:30:19.920Z,100776.74
2019-02-11T16:32:48.868Z,100785.01
2019-02-11T16:35:18.496Z,100791.56
2019-02-11T16:37:48.148Z,100797.35
2019-02-11T16:40:22.268Z,100802.79
2019-02-11T16:42:50.898Z,100830.50
2019-02-11T16:45:19.430Z,100826.66
2019-02-11T16:47:48.060Z,100834.64
2019-02-11T16:50:16.655Z,100838.30
2019-02-11T16:52:45.227Z,100842.56
2019-02-11T16:55:14.814Z,100850.31
2019-02-11T16:57:43.600Z,100859.28
2019-02-11T17:00:20.095Z,100863.19
2019-02-11T17:02:48.754Z,100868.48
2019-02-11T17:05:17.396Z,100885.39
2019-02-11T17:07:46.335Z,100882.58
2019-02-11T17:10:15.873Z,100877.52
2019-02-11T17:12:44.517Z,100889.91
2019-02-11T17:15:20.769Z,100903.52
2019-02-11T17:17:49.501Z,100913.09
2019-02-11T17:20:18.189Z,100928.25
2019-02-11T17:22:46.959Z,100932.37
2019-02-11T17:25:18.605Z,100939.33
2019-02-11T17:27:47.375Z,100946.41
2019-02-11T17:30:22.262Z,100948.25
2019-02-11T17:32:51.058Z,100949.95
2019-02-11T17:35:19.704Z,100953.22
2019-02-11T17:37:48.371Z,100968.66
2019-02-11T17:40:18.115Z,100968.95
2019-02-11T17:42:47.190Z,100980.70
2019-02-11T17:45:27.123Z,100981.18
2019-02-11T17:47:55.668Z,100989.23
2019-02-11T17:50:24.356Z,100992.30
2019-02-11T17:53:03.865Z,101000.77
2019-02-11T17:55:52.595Z,101011.78
2019-02-11T17:58:22.543Z,101019.30
2019-02-11T18:00:52.783Z,101029.86
2019-02-11T18:03:21.614Z,101028.66
2019-02-11T18:05:50.492Z,101032.74
2019-02-11T18:08:19.661Z,101034.36
2019-02-11T18:10:49.459Z,101041.45
2019-02-11T18:13:18.956Z,101044.95
2019-02-11T18:15:47.874Z,101046.22
2019-02-11T18:18:16.594Z,101052.30
2019-02-11T18:20:45.154Z,101065.11
2019-02-11T18:23:13.884Z,101079.81
2019-02-11T18:25:42.545Z,101080.57
2019-02-11T18:28:11.226Z,101085.66
2019-02-11T18:30:40.114Z,101088.14
2019-02-11T18:33:08.836Z,101100.46
2019-02-11T18:35:37.519Z,101100.98
2019-02-11T18:38:06.302Z,101107.19
2019-02-11T18:40:34.897Z,101112.94
2019-02-11T18:43:03.581Z,101123.30
2019-02-11T18:45:35.820Z,101126.11
2019-02-11T18:48:05.153Z,101134.78
2019-02-11T18:50:33.830Z,101141.67
2019-02-11T18:53:02.538Z,101147.98
2019-02-11T18:55:31.291Z,101154.17
2019-02-11T18:57:59.886Z,101158.96
2019-02-11T19:00:28.503Z,101166.98
2019-02-11T19:02:57.318Z,101166.49
2019-02-11T19:05:26.485Z,101158.06
2019-02-11T19:07:55.108Z,101162.09
2019-02-11T19:10:23.784Z,101162.44
2019-02-11T19:12:52.824Z,101166.09
2019-02-11T19:15:21.959Z,101172.20
2019-02-11T19:17:50.786Z,101185.58
2019-02-11T19:20:19.517Z,101185.58
2019-02-11T19:22:48.181Z,101195.70
2019-02-11T19:25:16.755Z,101193.67
2019-02-11T19:27:45.944Z,101195.36
2019-02-11T19:30:23.049Z,101195.23
2019-02-11T19:32:51.714Z,101200.73
2019-02-11T19:35:20.520Z,101206.19
2019-02-11T19:37:49.086Z,101218.34
2019-02-11T19:40:19.882Z,101217.06
2019-02-11T19:42:48.588Z,101218.69
2019-02-11T19:45:22.059Z,101218.14
2019-02-11T19:47:50.812Z,101226.41
2019-02-11T19:50:19.560Z,101233.06
2019-02-11T19:52:48.972Z,101231.17
2019-02-11T19:55:17.813Z,101236.28
2019-02-11T19:57:46.993Z,101245.16
2019-02-11T20:00:21.821Z,101243.91
2019-02-11T20:02:51.538Z,101246.83
2019-02-11T20:05:20.354Z,101262.23
2019-02-11T20:07:49.251Z,101263.48
2019-02-11T20:10:25.484Z,101271.84
2019-02-11T20:12:54.211Z,101270.19
2019-02-11T20:15:26.041Z,101277.52
2019-02-11T20:17:54.722Z,101278.88
2019-02-11T20:20:24.065Z,101285.48
2019-02-11T20:22:53.339Z,101275.99
2019-02-11T20:25:21.939Z,101289.77
2019-02-11T20:27:50.675Z,101291.13
2019-02-11T20:30:30.447Z,101289.20
2019-02-11T20:32:59.066Z,101291.52
2019-02-11T20:35:27.670Z,101295.94
2019-02-11T20:37:56.277Z,101301.10
2019-02-11T20:40:27.179Z,101289.30
2019-02-11T20:42:55.825Z,101294.97
2019-02-11T20:45:28.477Z,101299.34
2019-02-11T20:47:57.319Z,101308.22
2019-02-11T20:50:25.883Z,101310.92
2019-02-11T20:52:54.588Z,101308.88
2019-02-11T20:55:24.302Z,101307.16
2019-02-11T20:58:00.508Z,101319.36
2019-02-11T21:00:29.637Z,101320.14
2019-02-11T21:02:58.294Z,101317.20
2019-02-11T21:05:26.856Z,101320.69
2019-02-11T21:07:55.730Z,101325.80
2019-02-11T21:10:27.739Z,101321.81
2019-02-11T21:12:56.387Z,101328.73
2019-02-11T21:15:25.059Z,101335.22
2019-02-11T21:17:53.813Z,101340.25
2019-02-11T21:20:28.111Z,101336.72
2019-02-11T21:22:56.793Z,101335.36
2019-02-11T21:25:25.584Z,101338.02
2019-02-11T21:27:54.248Z,101348.09
2019-02-11T21:30:22.804Z,101341.70
2019-02-11T21:32:51.454Z,101342.31
2019-02-11T21:35:19.988Z,101351.34
2019-02-11T21:37:48.654Z,101359.83
2019-02-11T21:40:17.185Z,101361.03
2019-02-11T21:42:45.778Z,101362.45
2019-02-11T21:45:14.952Z,101365.56
2019-02-11T21:47:43.504Z,101369.22
2019-02-11T21:50:26.282Z,101381.19
2019-02-11T21:52:50.615Z,101379.69
2019-02-11T21:55:24.752Z,101384.95
2019-02-11T21:57:53.286Z,101380.52
2019-02-11T22:00:24.611Z,101380.27
2019-02-11T22:02:53.172Z,101383.75
2019-02-11T22:05:21.680Z,101389.98
2019-02-11T22:07:50.260Z,101397.13
2019-02-11T22:10:21.222Z,101390.57
2019-02-11T22:12:49.841Z,101399.83
2019-02-11T22:15:18.526Z,101401.70
2019-02-11T22:17:47.509Z,101402.74
2019-02-11T22:20:18.693Z,101399.05
2019-02-11T22:22:47.299Z,101399.42
2019-02-11T22:25:15.904Z,101404.67
2019-02-11T22:27:44.540Z,101401.96
2019-02-11T22:30:24.029Z,101413.11
2019-02-11T22:32:53.030Z,101403.58
2019-02-11T22:35:21.556Z,101405.97
2019-02-11T22:37:52.716Z,101408.98
2019-02-11T22:40:21.310Z,101414.72
2019-02-11T22:42:49.894Z,101423.67
2019-02-11T22:45:21.472Z,101436.92
2019-02-11T22:47:50.174Z,101434.68
2019-02-11T22:50:18.711Z,101441.70
2019-02-11T22:52:47.263Z,101447.64
2019-02-11T22:55:16.165Z,101448.84
2019-02-11T22:57:44.722Z,101455.83
2019-02-11T23:00:22.012Z,101456.81
2019-02-11T23:02:50.586Z,101466.86
2019-02-11T23:05:19.139Z,101468.69
2019-02-11T23:07:47.704Z,101485.35
2019-02-11T23:10:16.218Z,101478.13
2019-02-11T23:12:44.775Z,101477.97
2019-02-11T23:15:13.303Z,101477.59
2019-02-11T23:17:41.856Z,101478.38
2019-02-11T23:20:10.447Z,101485.58
2019-02-11T23:22:39.055Z,101488.53
2019-02-11T23:25:07.780Z,101486.50
2019-02-11T23:27:36.715Z,101500.52
2019-02-11T23:30:13.336Z,101499.90
2019-02-11T23:32:38.134Z,101497.77
2019-02-11T23:35:07.034Z,101504.48
2019-02-11T23:37:35.605Z,101499.13
2019-02-11T23:40:06.432Z,101500.27
2019-02-11T23:42:34.999Z,101502.67
2019-02-11T23:45:04.742Z,101509.02
2019-02-11T23:47:33.316Z,101509.28
2019-02-11T23:50:01.847Z,101523.35
2019-02-11T23:52:30.401Z,101522.04
2019-02-11T23:54:58.938Z,101534.95
2019-02-11T23:57:29.975Z,101532.37
2019-02-11T23:59:58.524Z,101537.16
